Time;durP1;ratioP1;P1;durP2;ratioP2;P2;SDS_P1;SDS_P2;PMS_P1;PMS_P2;Temp;Humidity;BMP_temperature;BMP_pressure;BME280_temperature;BME280_humidity;BME280_pressure;Samples;Min_cycle;Max_cycle;Signal;HPM_P1;HPM_P2
2023/04/03 00:00:31;;;;;;;1.65;1.00;;;3.00;99.90;;;;;;5041693;28;20551;-71
2023/04/03 00:02:57;;;;;;;3.80;1.15;;;2.60;99.90;;;;;;5059845;28;20073;-71
2023/04/03 00:05:23;;;;;;;2.55;1.40;;;4.10;99.90;;;;;;5077809;28;20041;-71
2023/04/03 00:07:51;;;;;;;2.63;1.13;;;3.40;99.90;;;;;;5059173;28;20058;-71
2023/04/03 00:10:17;;;;;;;1.50;1.10;;;2.50;99.90;;;;;;5058894;28;20775;-71
2023/04/03 00:12:43;;;;;;;1.83;1.10;;;2.50;99.90;;;;;;5043035;28;20049;-71
2023/04/03 00:15:10;;;;;;;2.10;1.25;;;2.50;99.90;;;;;;5044161;28;20038;-70
2023/04/03 00:17:42;;;;;;;5.13;1.67;;;2.40;99.90;;;;;;5054287;28;20102;-71
2023/04/03 00:20:08;;;;;;;3.65;1.10;;;2.40;99.90;;;;;;5060520;28;20041;-71
2023/04/03 00:22:34;;;;;;;2.00;1.00;;;2.40;99.90;;;;;;5057053;28;20048;-71
2023/04/03 00:25:00;;;;;;;2.00;1.17;;;2.30;99.90;;;;;;5042017;28;20414;-71
2023/04/03 00:27:26;;;;;;;3.28;1.20;;;2.30;99.90;;;;;;5055434;28;20060;-72
2023/04/03 00:29:52;;;;;;;3.22;1.20;;;2.30;99.90;;;;;;5056631;28;20048;-71
2023/04/03 00:32:18;;;;;;;2.75;1.10;;;2.60;99.90;;;;;;5043388;28;20052;-70
2023/04/03 00:34:44;;;;;;;3.53;1.60;;;2.30;99.90;;;;;;5027255;28;20092;-71
2023/04/03 00:37:10;;;;;;;4.20;1.33;;;2.10;99.90;;;;;;5056686;28;20052;-70
2023/04/03 00:39:35;;;;;;;2.95;1.20;;;2.10;99.90;;;;;;5058392;28;20437;-71
2023/04/03 00:42:01;;;;;;;3.47;1.40;;;2.30;99.90;;;;;;5059783;28;20057;-71
2023/04/03 00:44:33;;;;;;;2.78;1.38;;;2.00;99.90;;;;;;5060293;28;20084;-71
2023/04/03 00:47:00;;;;;;;2.72;1.30;;;2.00;99.90;;;;;;5058617;28;20418;-70
2023/04/03 00:49:33;;;;;;;3.58;1.70;;;2.00;99.90;;;;;;5058088;28;20047;-70
2023/04/03 00:51:59;;;;;;;3.00;1.30;;;1.90;99.90;;;;;;5064792;28;20048;-69
2023/04/03 00:54:27;;;;;;;3.15;1.50;;;1.90;99.90;;;;;;5059659;28;20041;-70
2023/04/03 00:56:56;;;;;;;3.15;1.48;;;1.90;99.90;;;;;;5058661;28;20048;-70
2023/04/03 00:59:27;;;;;;;4.18;1.80;;;2.60;99.90;;;;;;5042015;28;20068;-70
2023/04/03 01:01:57;;;;;;;3.20;1.83;;;1.80;99.90;;;;;;5040377;28;20048;-72
2023/04/03 01:04:43;;;;;;;2.67;1.33;;;3.10;99.90;;;;;;5060606;28;20053;-71
2023/04/03 01:07:17;;;;;;;2.17;1.30;;;1.80;99.90;;;;;;5058414;28;20037;-70
2023/04/03 01:09:46;;;;;;;3.75;1.50;;;0.80;99.90;;;;;;5060554;28;20048;-70
2023/04/03 01:12:25;;;;;;;2.75;1.50;;;1.90;99.90;;;;;;5058856;28;20527;-71
2023/04/03 01:15:00;;;;;;;3.20;1.67;;;1.80;99.90;;;;;;5043667;28;20094;-71
2023/04/03 01:17:39;;;;;;;3.22;1.70;;;1.80;99.90;;;;;;5061213;28;20067;-72
2023/04/03 01:20:17;;;;;;;3.63;1.55;;;1.70;99.90;;;;;;5059477;28;20585;-70
2023/04/03 01:23:11;;;;;;;2.78;1.80;;;1.70;99.90;;;;;;5075554;28;20066;-71
2023/04/03 01:25:44;;;;;;;3.35;1.70;;;1.70;99.90;;;;;;5057559;28;20103;-71
2023/04/03 01:28:34;;;;;;;5.05;1.60;;;1.70;99.90;;;;;;5060064;28;20063;-70
2023/04/03 01:31:21;;;;;;;4.47;1.77;;;1.60;99.90;;;;;;5059794;28;20047;-71
2023/04/03 01:33:47;;;;;;;2.88;1.85;;;1.60;99.90;;;;;;5057421;28;20067;-71
2023/04/03 01:36:20;;;;;;;2.20;1.48;;;1.60;99.90;;;;;;5059368;28;20082;-71
2023/04/03 01:38:46;;;;;;;4.03;1.40;;;1.60;99.90;;;;;;5056073;28;20045;-72
2023/04/03 01:41:21;;;;;;;4.20;2.03;;;1.50;99.90;;;;;;5057344;28;20260;-71
2023/04/03 01:43:48;;;;;;;5.47;2.35;;;1.50;99.90;;;;;;5073198;28;20071;-70
2023/04/03 01:46:15;;;;;;;3.72;1.67;;;0.80;99.90;;;;;;5055232;28;20036;-70
2023/04/03 01:48:41;;;;;;;4.50;1.80;;;2.40;99.90;;;;;;5040988;28;20075;-71
2023/04/03 01:51:07;;;;;;;2.83;1.58;;;1.50;99.90;;;;;;5040165;28;20075;-71
2023/04/03 01:53:34;;;;;;;2.25;1.40;;;1.50;99.90;;;;;;5055860;28;20727;-71
2023/04/03 01:56:00;;;;;;;3.50;1.65;;;1.50;99.90;;;;;;5055944;28;20083;-70
2023/04/03 01:58:26;;;;;;;3.67;2.03;;;1.40;99.90;;;;;;5041325;28;20048;-70
2023/04/03 02:00:52;;;;;;;2.70;1.65;;;1.40;99.90;;;;;;5039080;28;20052;-71
2023/04/03 02:03:18;;;;;;;1.92;1.30;;;1.40;99.90;;;;;;5049618;28;20239;-70
2023/04/03 02:05:44;;;;;;;2.28;1.42;;;1.40;99.90;;;;;;5053797;28;20095;-71
2023/04/03 02:08:17;;;;;;;3.13;1.65;;;1.40;99.90;;;;;;5056216;28;20090;-69
2023/04/03 02:10:51;;;;;;;3.40;1.67;;;1.70;99.90;;;;;;5042213;28;20088;-71
2023/04/03 02:13:17;;;;;;;2.85;1.40;;;1.30;99.90;;;;;;5052978;28;20049;-70
2023/04/03 02:15:45;;;;;;;5.15;1.50;;;1.30;99.90;;;;;;5053151;28;20056;-69
2023/04/03 02:18:11;;;;;;;3.08;1.67;;;2.20;99.90;;;;;;5055612;28;20599;-70
2023/04/03 02:20:38;;;;;;;2.60;1.40;;;1.30;99.90;;;;;;5055948;28;20524;-70
2023/04/03 02:23:05;;;;;;;3.22;1.35;;;2.20;99.90;;;;;;5055599;28;20048;-70
2023/04/03 02:25:32;;;;;;;4.32;1.40;;;1.30;99.90;;;;;;5072526;28;20403;-70
2023/04/03 02:27:58;;;;;;;4.70;1.60;;;1.20;99.90;;;;;;5072820;28;20094;-70
2023/04/03 02:30:26;;;;;;;2.45;1.48;;;1.20;99.90;;;;;;5055956;28;20135;-71
2023/04/03 02:32:53;;;;;;;2.67;1.27;;;1.20;99.90;;;;;;5056333;28;20054;-70
2023/04/03 02:35:19;;;;;;;4.13;1.40;;;2.10;99.90;;;;;;5039651;28;20045;-71
2023/04/03 02:37:44;;;;;;;3.90;1.42;;;1.20;99.90;;;;;;5038056;28;20045;-72
2023/04/03 02:40:11;;;;;;;2.33;1.20;;;1.60;99.90;;;;;;5039200;28;20256;-70
2023/04/03 02:42:38;;;;;;;2.20;1.30;;;1.10;99.90;;;;;;5057408;28;20055;-71
2023/04/03 02:45:05;;;;;;;2.85;1.40;;;1.10;99.90;;;;;;5039554;28;20053;-71
2023/04/03 02:47:30;;;;;;;2.90;1.35;;;1.10;99.90;;;;;;5056969;28;20119;-70
2023/04/03 02:49:56;;;;;;;3.22;1.40;;;1.00;99.90;;;;;;5054224;28;20048;-71
2023/04/03 02:52:25;;;;;;;4.00;1.40;;;2.10;99.90;;;;;;5057112;28;20097;-71
2023/04/03 02:54:50;;;;;;;3.05;1.42;;;-0.10;99.90;;;;;;5045062;28;20055;-71
2023/04/03 02:57:16;;;;;;;4.25;1.27;;;0.80;99.90;;;;;;5061039;28;20037;-70
2023/04/03 02:59:42;;;;;;;3.55;1.30;;;0.90;99.90;;;;;;5029224;28;20467;-70
2023/04/03 03:02:08;;;;;;;5.60;1.60;;;1.80;99.90;;;;;;5040954;28;20083;-70
2023/04/03 03:04:35;;;;;;;3.22;1.33;;;0.90;99.90;;;;;;5054376;28;20335;-71
2023/04/03 03:07:01;;;;;;;3.72;1.30;;;0.80;99.90;;;;;;5059244;28;20100;-72
2023/04/03 03:09:27;;;;;;;3.75;1.50;;;1.10;99.90;;;;;;5060254;28;20234;-70
2023/04/03 03:11:53;;;;;;;2.45;1.40;;;1.00;99.90;;;;;;5056919;28;20498;-71
2023/04/03 03:14:20;;;;;;;3.15;1.70;;;0.80;99.90;;;;;;5059144;28;20080;-69
2023/04/03 03:16:45;;;;;;;2.45;1.45;;;0.80;99.90;;;;;;5043303;28;20041;-70
2023/04/03 03:19:11;;;;;;;4.82;1.33;;;0.80;99.90;;;;;;5060762;28;20371;-70
2023/04/03 03:21:37;;;;;;;2.13;1.20;;;1.40;99.90;;;;;;5044365;28;20393;-69
2023/04/03 03:24:09;;;;;;;3.30;1.70;;;0.70;99.90;;;;;;5054570;28;20057;-70
2023/04/03 03:26:35;;;;;;;3.05;1.60;;;0.70;99.90;;;;;;5043086;28;20398;-70
2023/04/03 03:29:00;;;;;;;3.33;1.33;;;0.60;99.90;;;;;;5044873;28;20048;-70
2023/04/03 03:31:26;;;;;;;2.40;1.27;;;1.40;99.90;;;;;;5056786;28;20525;-70
2023/04/03 03:33:52;;;;;;;3.47;1.60;;;0.60;99.90;;;;;;5042710;28;20049;-70
2023/04/03 03:36:18;;;;;;;2.92;1.55;;;1.30;99.90;;;;;;5057156;28;20055;-72
2023/04/03 03:38:43;;;;;;;5.47;1.73;;;0.90;99.90;;;;;;5057721;28;20786;-72
2023/04/03 03:41:09;;;;;;;6.07;2.05;;;0.40;99.90;;;;;;5042098;28;20056;-70
2023/04/03 03:43:35;;;;;;;4.32;1.60;;;0.50;99.90;;;;;;5044866;28;20137;-70
2023/04/03 03:46:01;;;;;;;6.90;1.73;;;0.50;99.90;;;;;;5060130;28;20044;-71
2023/04/03 03:48:27;;;;;;;4.60;1.73;;;0.40;99.90;;;;;;5057922;28;20040;-72
2023/04/03 03:50:53;;;;;;;3.47;1.70;;;0.40;99.90;;;;;;5057917;28;20048;-71
2023/04/03 03:53:19;;;;;;;3.95;1.90;;;1.40;99.90;;;;;;5061663;28;20048;-71
2023/04/03 03:55:45;;;;;;;3.60;1.77;;;0.40;99.90;;;;;;5059293;28;20078;-71
2023/04/03 03:58:10;;;;;;;4.57;1.50;;;1.50;99.90;;;;;;5042086;28;20139;-71
2023/04/03 04:00:36;;;;;;;3.65;1.20;;;0.30;99.90;;;;;;5051087;28;20055;-72
2023/04/03 04:03:05;;;;;;;4.35;1.73;;;0.30;99.90;;;;;;5056877;28;20072;-71
2023/04/03 04:05:31;;;;;;;3.92;1.40;;;1.30;99.90;;;;;;5043658;28;20072;-71
2023/04/03 04:07:57;;;;;;;3.53;1.60;;;0.40;99.90;;;;;;5056944;28;20040;-72
2023/04/03 04:10:24;;;;;;;6.03;1.50;;;0.50;99.90;;;;;;5074874;28;20063;-70
2023/04/03 04:12:51;;;;;;;3.45;1.40;;;0.50;99.90;;;;;;5057189;28;20064;-71
2023/04/03 04:15:17;;;;;;;3.33;1.65;;;0.20;99.90;;;;;;5040338;28;20053;-70
2023/04/03 04:17:44;;;;;;;3.78;1.80;;;0.10;99.90;;;;;;5060477;28;20097;-72
2023/04/03 04:20:11;;;;;;;3.28;1.52;;;1.70;99.90;;;;;;5063162;28;20052;-70
2023/04/03 04:22:37;;;;;;;2.42;1.30;;;0.10;99.90;;;;;;5063751;28;20328;-71
2023/04/03 04:25:03;;;;;;;4.68;1.45;;;0.10;99.90;;;;;;5055151;28;20048;-71
2023/04/03 04:27:29;;;;;;;3.97;1.40;;;0.10;99.90;;;;;;5039860;28;20114;-71
2023/04/03 04:29:54;;;;;;;2.42;1.20;;;0.00;99.90;;;;;;5038800;28;20927;-73
2023/04/03 04:32:20;;;;;;;4.55;1.50;;;0.10;99.90;;;;;;5050882;28;20040;-72
2023/04/03 04:34:46;;;;;;;5.00;1.60;;;0.00;99.90;;;;;;5056611;28;20064;-72
2023/04/03 04:37:12;;;;;;;6.15;1.48;;;1.20;99.90;;;;;;5057091;28;20055;-72
2023/04/03 04:39:37;;;;;;;5.13;1.95;;;-0.10;99.90;;;;;;5058669;28;20555;-73
2023/04/03 04:42:03;;;;;;;4.95;1.80;;;-0.10;99.90;;;;;;5056764;28;20075;-73
2023/04/03 04:44:29;;;;;;;2.97;1.60;;;-0.10;99.90;;;;;;5058700;28;20069;-72
2023/04/03 04:46:55;;;;;;;3.00;1.33;;;0.80;99.90;;;;;;5054998;28;20044;-73
2023/04/03 04:49:20;;;;;;;4.13;1.50;;;0.60;99.90;;;;;;5042192;28;20074;-73
2023/04/03 04:51:46;;;;;;;3.75;1.58;;;-0.20;99.90;;;;;;5041554;28;20448;-72
2023/04/03 04:54:12;;;;;;;5.35;2.65;;;-0.20;99.90;;;;;;5056735;28;20067;-73
2023/04/03 04:56:38;;;;;;;5.10;2.67;;;-0.20;99.90;;;;;;5053828;28;20044;-73
2023/04/03 04:59:03;;;;;;;3.28;1.38;;;-0.20;99.90;;;;;;5057807;28;21232;-72
2023/04/03 05:01:29;;;;;;;2.65;1.55;;;0.70;99.90;;;;;;5055070;28;20044;-73
2023/04/03 05:03:55;;;;;;;2.95;1.60;;;-0.20;99.90;;;;;;5054792;28;20092;-72
2023/04/03 05:06:21;;;;;;;3.25;1.55;;;1.00;99.90;;;;;;5040863;28;20729;-73
2023/04/03 05:08:46;;;;;;;4.10;1.85;;;-0.20;99.90;;;;;;5055812;28;20615;-72
2023/04/03 05:11:12;;;;;;;5.32;1.88;;;1.10;99.90;;;;;;5041038;28;20631;-72
2023/04/03 05:13:39;;;;;;;3.90;1.92;;;-0.30;99.90;;;;;;5007191;28;20129;-72
2023/04/03 05:16:06;;;;;;;4.00;1.88;;;0.20;99.90;;;;;;5039525;28;20394;-73
2023/04/03 05:18:31;;;;;;;5.55;1.70;;;-0.20;99.90;;;;;;5051531;28;20044;-73
2023/04/03 05:20:58;;;;;;;3.03;1.60;;;1.50;99.90;;;;;;5056343;28;20509;-73
2023/04/03 05:23:24;;;;;;;3.83;1.50;;;-0.30;99.90;;;;;;5041398;28;20392;-73
2023/04/03 05:25:50;;;;;;;4.57;1.70;;;0.70;99.90;;;;;;5055627;28;20383;-72
2023/04/03 05:28:17;;;;;;;6.50;2.13;;;-0.30;99.90;;;;;;5034330;28;20048;-70
2023/04/03 05:30:43;;;;;;;5.85;1.83;;;-0.30;99.90;;;;;;5038652;28;20051;-71
2023/04/03 05:33:10;;;;;;;3.03;1.50;;;-0.30;99.90;;;;;;5040703;28;20543;-70
2023/04/03 05:35:41;;;;;;;6.30;2.42;;;1.10;99.90;;;;;;5057940;28;20109;-70
2023/04/03 05:38:07;;;;;;;5.97;2.00;;;0.50;99.90;;;;;;5056525;28;20040;-70
2023/04/03 05:40:33;;;;;;;4.57;1.95;;;-0.30;99.90;;;;;;5044202;28;20095;-71
2023/04/03 05:42:58;;;;;;;5.03;2.10;;;0.90;99.90;;;;;;5059417;28;20080;-70
2023/04/03 05:45:25;;;;;;;4.70;2.22;;;-0.20;99.90;;;;;;5059810;28;20040;-70
2023/04/03 05:47:51;;;;;;;4.32;2.00;;;0.50;99.90;;;;;;5045845;28;20048;-70
2023/04/03 05:50:16;;;;;;;5.00;1.90;;;-0.20;99.90;;;;;;5027296;28;20090;-71
2023/04/03 05:52:45;;;;;;;5.28;1.77;;;-0.20;99.90;;;;;;5044803;28;20056;-73
2023/04/03 05:55:11;;;;;;;3.30;1.85;;;1.00;99.90;;;;;;5040698;28;20055;-70
2023/04/03 05:57:38;;;;;;;3.67;2.08;;;0.40;99.90;;;;;;5055981;28;20049;-70
2023/04/03 06:00:10;;;;;;;4.88;2.10;;;-0.10;99.90;;;;;;5041842;28;20088;-71
2023/04/03 06:02:37;;;;;;;4.95;1.98;;;-0.10;99.90;;;;;;5053769;28;20044;-71
2023/04/03 06:05:03;;;;;;;3.63;1.98;;;1.40;99.90;;;;;;5039729;28;20051;-70
2023/04/03 06:07:29;;;;;;;3.75;2.05;;;0.00;99.90;;;;;;5038511;28;20136;-71
2023/04/03 06:09:56;;;;;;;5.72;2.20;;;0.00;99.90;;;;;;5040862;28;20517;-72
2023/04/03 06:12:24;;;;;;;5.47;2.00;;;1.30;99.90;;;;;;5058975;28;20033;-71
2023/04/03 06:14:52;;;;;;;4.20;2.08;;;0.00;99.90;;;;;;5057434;28;20036;-71
2023/04/03 06:17:18;;;;;;;4.78;2.10;;;0.10;99.90;;;;;;5059697;28;20367;-71
2023/04/03 06:19:44;;;;;;;4.68;1.88;;;0.00;99.90;;;;;;5043707;28;20538;-71
2023/04/03 06:22:11;;;;;;;5.10;2.35;;;0.10;99.90;;;;;;5062663;28;20679;-72
2023/04/03 06:24:44;;;;;;;4.57;2.40;;;0.20;99.90;;;;;;5045960;28;20753;-73
2023/04/03 06:27:11;;;;;;;3.80;2.20;;;0.20;99.90;;;;;;5063086;28;20466;-71
2023/04/03 06:29:40;;;;;;;5.13;1.95;;;1.70;99.90;;;;;;5066319;28;20045;-71
2023/04/03 06:32:10;;;;;;;4.30;1.98;;;0.40;99.90;;;;;;5064220;28;20049;-73
2023/04/03 06:34:36;;;;;;;5.85;2.20;;;0.20;99.90;;;;;;5058456;28;20093;-69
2023/04/03 06:37:04;;;;;;;6.38;2.25;;;0.30;99.90;;;;;;5048517;28;20498;-69
2023/04/03 06:39:37;;;;;;;5.53;2.20;;;1.80;99.90;;;;;;5065077;28;20134;-73
2023/04/03 06:42:03;;;;;;;4.72;2.10;;;0.40;99.90;;;;;;5064990;28;20068;-69
2023/04/03 06:44:28;;;;;;;6.72;2.40;;;0.50;99.90;;;;;;5066176;28;20128;-70
2023/04/03 06:46:54;;;;;;;4.63;2.10;;;1.10;99.90;;;;;;5062133;28;20090;-69
2023/04/03 06:49:20;;;;;;;4.53;2.13;;;0.60;99.90;;;;;;5047188;28;20058;-71
2023/04/03 06:51:46;;;;;;;4.25;2.20;;;0.60;99.90;;;;;;5056494;28;20040;-72
2023/04/03 06:54:12;;;;;;;7.50;2.28;;;0.70;99.90;;;;;;5064268;28;20048;-69
2023/04/03 06:56:38;;;;;;;5.10;2.33;;;0.80;99.90;;;;;;5068127;28;20908;-71
2023/04/03 06:59:04;;;;;;;5.60;2.10;;;0.80;99.90;;;;;;5065462;28;20060;-69
2023/04/03 07:01:31;;;;;;;4.82;2.00;;;0.90;99.90;;;;;;5054056;28;20092;-70
2023/04/03 07:03:57;;;;;;;4.85;2.20;;;1.10;99.90;;;;;;5070675;28;20463;-70
2023/04/03 07:06:22;;;;;;;7.82;2.20;;;1.10;99.90;;;;;;5067968;28;20394;-70
2023/04/03 07:08:55;;;;;;;6.30;2.40;;;2.20;99.90;;;;;;5051966;28;20070;-71
2023/04/03 07:11:22;;;;;;;5.43;2.60;;;1.40;99.90;;;;;;5067699;28;20099;-70
2023/04/03 07:13:48;;;;;;;5.95;1.95;;;1.50;99.90;;;;;;5066774;28;20123;-70
2023/04/03 07:16:14;;;;;;;4.45;2.00;;;1.70;99.90;;;;;;5052790;28;20417;-70
2023/04/03 07:18:40;;;;;;;5.40;2.05;;;1.80;99.90;;;;;;5048821;28;20127;-69
2023/04/03 07:21:07;;;;;;;6.63;2.22;;;2.00;99.90;;;;;;5068603;28;20052;-70
2023/04/03 07:23:37;;;;;;;5.20;2.00;;;2.20;99.90;;;;;;5068408;28;20059;-70
2023/04/03 07:26:03;;;;;;;8.43;2.28;;;2.40;99.90;;;;;;5052380;28;20094;-70
2023/04/03 07:28:29;;;;;;;5.65;2.15;;;2.50;99.90;;;;;;5065790;28;20410;-70
2023/04/03 07:31:08;;;;;;;7.30;2.30;;;2.70;99.90;;;;;;5047095;28;20088;-70
2023/04/03 07:33:34;;;;;;;3.78;1.90;;;3.00;99.90;;;;;;5066857;28;20506;-71
2023/04/03 07:36:01;;;;;;;3.95;2.08;;;3.20;99.90;;;;;;5066963;28;20044;-70
2023/04/03 07:38:28;;;;;;;5.03;1.80;;;3.40;99.90;;;;;;5050143;28;20120;-72
2023/04/03 07:40:54;;;;;;;6.25;2.25;;;3.60;99.90;;;;;;5066777;28;20474;-71
2023/04/03 07:43:21;;;;;;;5.40;2.22;;;3.80;99.90;;;;;;5066836;28;20135;-70
2023/04/03 07:45:50;;;;;;;5.32;1.95;;;4.10;99.90;;;;;;5067635;28;20040;-70
2023/04/03 07:48:24;;;;;;;5.65;1.90;;;4.40;99.90;;;;;;5049715;28;20083;-71
2023/04/03 07:50:51;;;;;;;3.83;2.08;;;4.60;99.90;;;;;;5066085;28;20056;-70
2023/04/03 07:53:17;;;;;;;4.05;1.77;;;4.90;99.90;;;;;;5032390;28;20354;-71
2023/04/03 07:55:45;;;;;;;5.45;2.28;;;3.70;99.90;;;;;;5032311;28;20047;-71
2023/04/03 07:58:14;;;;;;;4.75;2.00;;;5.40;99.90;;;;;;5050618;28;20041;-70
2023/04/03 08:00:40;;;;;;;4.47;1.70;;;5.60;99.90;;;;;;5055444;28;20494;-72
2023/04/03 08:03:07;;;;;;;3.95;1.58;;;5.80;99.90;;;;;;5065050;28;20052;-71
2023/04/03 08:05:38;;;;;;;4.80;1.75;;;6.00;99.90;;;;;;5066569;28;20040;-71
2023/04/03 08:08:04;;;;;;;3.85;1.67;;;6.20;99.90;;;;;;5063133;28;20052;-71
2023/04/03 08:10:31;;;;;;;3.45;1.92;;;6.40;99.90;;;;;;5064513;28;20056;-70
2023/04/03 08:12:56;;;;;;;5.63;2.10;;;6.50;99.90;;;;;;5065753;28;20056;-70
2023/04/03 08:15:31;;;;;;;4.25;1.60;;;5.70;99.90;;;;;;5066136;28;20145;-70
2023/04/03 08:17:58;;;;;;;5.05;1.90;;;7.00;99.90;;;;;;5063495;28;20523;-71
2023/04/03 08:20:24;;;;;;;7.20;1.92;;;7.20;99.90;;;;;;5065575;28;20597;-71
2023/04/03 08:22:50;;;;;;;5.47;1.88;;;7.50;99.90;;;;;;5048913;28;20052;-70
2023/04/03 08:25:22;;;;;;;5.18;1.90;;;7.60;99.90;;;;;;5065239;28;20047;-73
2023/04/03 08:27:48;;;;;;;3.03;1.63;;;7.70;99.90;;;;;;5065464;28;20084;-72
2023/04/03 08:30:14;;;;;;;6.70;1.80;;;8.00;99.90;;;;;;5047842;28;20095;-71
2023/04/03 08:32:42;;;;;;;5.38;2.00;;;8.10;99.90;;;;;;5048670;28;20055;-72
2023/04/03 08:35:08;;;;;;;4.38;1.90;;;8.40;99.90;;;;;;5081525;28;20059;-71
2023/04/03 08:37:39;;;;;;;5.20;1.77;;;8.70;99.90;;;;;;5047737;28;20040;-71
2023/04/03 08:40:06;;;;;;;4.30;1.67;;;8.90;99.90;;;;;;5065069;28;20068;-71
2023/04/03 08:42:56;;;;;;;3.80;1.80;;;9.10;99.90;;;;;;5063249;28;20072;-70
2023/04/03 08:45:35;;;;;;;3.72;1.77;;;9.40;99.90;;;;;;5064536;28;20517;-71
2023/04/03 08:48:10;;;;;;;4.28;1.67;;;9.50;99.90;;;;;;5063770;28;20387;-70
2023/04/03 08:50:41;;;;;;;3.58;1.55;;;9.70;99.90;;;;;;5063627;28;20106;-69
2023/04/03 08:53:15;;;;;;;3.65;1.50;;;9.90;99.90;;;;;;5055778;28;20044;-69
2023/04/03 08:55:53;;;;;;;6.50;1.50;;;10.10;99.90;;;;;;5060421;28;20133;-71
2023/04/03 08:58:26;;;;;;;4.05;1.25;;;10.10;99.90;;;;;;5064418;28;20482;-70
2023/04/03 09:01:07;;;;;;;2.47;1.20;;;10.40;99.90;;;;;;5060982;28;20062;-72
2023/04/03 09:03:38;;;;;;;2.75;1.50;;;10.50;99.90;;;;;;5063524;28;20052;-70
2023/04/03 09:06:25;;;;;;;3.90;1.30;;;10.70;99.90;;;;;;5045004;28;20056;-71
2023/04/03 09:09:21;;;;;;;3.45;1.40;;;11.00;99.90;;;;;;5064175;28;20658;-72
2023/04/03 09:11:53;;;;;;;3.05;1.23;;;11.30;99.90;;;;;;5064606;28;20044;-71
2023/04/03 09:14:37;;;;;;;3.95;1.40;;;11.60;99.90;;;;;;5063498;28;20243;-72
2023/04/03 09:17:26;;;;;;;4.30;1.30;;;11.80;99.90;;;;;;5061794;28;20045;-71
2023/04/03 09:20:21;;;;;;;3.30;1.30;;;11.90;98.50;;;;;;5058114;28;20679;-70
2023/04/03 09:22:48;;;;;;;3.75;1.30;;;11.80;98.20;;;;;;5060546;28;20084;-75
2023/04/03 09:25:21;;;;;;;3.15;1.20;;;12.00;99.60;;;;;;5043574;28;20128;-72
2023/04/03 09:27:48;;;;;;;3.85;1.10;;;12.30;98.80;;;;;;5056893;28;20044;-72
2023/04/03 09:30:20;;;;;;;2.80;0.90;;;13.20;98.30;;;;;;5060511;28;20048;-72
2023/04/03 09:32:47;;;;;;;3.13;1.20;;;12.90;96.80;;;;;;5047664;28;20048;-73
2023/04/03 09:35:14;;;;;;;2.50;1.00;;;13.10;97.20;;;;;;5059866;28;20051;-72
2023/04/03 09:37:46;;;;;;;3.00;1.17;;;13.30;96.60;;;;;;5064374;28;20325;-70
2023/04/03 09:40:35;;;;;;;3.08;1.10;;;13.50;94.40;;;;;;5054622;28;20524;-71
2023/04/03 09:43:20;;;;;;;2.45;1.17;;;13.70;92.00;;;;;;5036406;28;20051;-73
2023/04/03 09:45:50;;;;;;;2.80;1.13;;;13.70;93.20;;;;;;5073183;28;20045;-70
2023/04/03 09:48:23;;;;;;;2.03;1.00;;;13.90;93.10;;;;;;5038862;28;20116;-69
2023/04/03 09:50:58;;;;;;;3.20;1.25;;;14.10;91.20;;;;;;5056897;28;20660;-70
2023/04/03 09:53:56;;;;;;;2.30;1.20;;;14.30;90.80;;;;;;5057083;28;20040;-70
2023/04/03 09:56:28;;;;;;;4.95;1.25;;;14.50;84.60;;;;;;5057439;28;20041;-70
2023/04/03 09:59:15;;;;;;;3.08;1.30;;;14.60;89.00;;;;;;5057650;28;20059;-69
2023/04/03 10:01:46;;;;;;;2.17;1.20;;;14.60;80.20;;;;;;5055361;28;20047;-71
2023/04/03 10:04:20;;;;;;;1.67;1.00;;;14.50;85.80;;;;;;5057365;28;20040;-69
2023/04/03 10:06:47;;;;;;;2.65;1.02;;;14.60;84.70;;;;;;5052942;28;20048;-70
2023/04/03 10:09:28;;;;;;;1.95;0.90;;;14.50;83.70;;;;;;5056019;28;20044;-69
2023/04/03 10:12:05;;;;;;;1.80;1.02;;;14.70;79.50;;;;;;5059553;28;20126;-72
2023/04/03 10:14:50;;;;;;;1.90;0.98;;;14.70;74.90;;;;;;5060414;28;20052;-72
2023/04/03 10:18:00;;;;;;;2.53;0.98;;;14.90;80.30;;;;;;5056857;28;20053;-71
2023/04/03 10:20:37;;;;;;;2.28;1.05;;;15.10;73.20;;;;;;4965437;28;20056;-71
2023/04/03 10:23:42;;;;;;;1.70;0.80;;;15.40;79.90;;;;;;5050893;28;20343;-71
2023/04/03 10:26:27;;;;;;;1.48;0.80;;;15.60;71.80;;;;;;5054783;28;20068;-69
2023/04/03 10:29:05;;;;;;;2.10;1.10;;;15.60;77.00;;;;;;5072424;28;20051;-71
2023/04/03 10:31:48;;;;;;;2.83;1.08;;;15.90;76.70;;;;;;5057581;28;20052;-71
2023/04/03 10:34:37;;;;;;;3.38;0.93;;;16.10;72.00;;;;;;5059898;28;20567;-70
2023/04/03 10:37:36;;;;;;;1.73;0.80;;;16.10;71.40;;;;;;5055220;28;20044;-70
2023/04/03 10:40:45;;;;;;;2.72;0.93;;;16.30;69.50;;;;;;5055208;28;20088;-70
2023/04/03 10:43:36;;;;;;;2.60;1.20;;;16.10;62.20;;;;;;5028522;28;20048;-72
2023/04/03 10:46:32;;;;;;;2.47;0.70;;;16.00;62.20;;;;;;5049154;28;20075;-71
2023/04/03 10:49:25;;;;;;;3.10;1.23;;;15.90;66.50;;;;;;5051488;28;20060;-71
2023/04/03 10:52:04;;;;;;;1.33;0.88;;;16.10;66.90;;;;;;5061675;28;20088;-71
2023/04/03 10:54:40;;;;;;;2.10;0.93;;;16.20;69.30;;;;;;5062112;28;20498;-70
2023/04/03 10:57:09;;;;;;;1.73;0.90;;;16.30;63.80;;;;;;5061036;28;20055;-71
2023/04/03 10:59:54;;;;;;;1.77;1.00;;;16.40;66.60;;;;;;5043764;28;20037;-72
2023/04/03 11:02:30;;;;;;;1.98;0.90;;;16.20;64.10;;;;;;5053920;28;20490;-71
2023/04/03 11:05:09;;;;;;;2.83;1.02;;;16.30;62.90;;;;;;5060609;28;20049;-70
2023/04/03 11:07:47;;;;;;;3.55;1.20;;;16.10;59.80;;;;;;5061460;28;20052;-71
2023/04/03 11:10:34;;;;;;;2.13;0.70;;;16.00;61.80;;;;;;5047140;28;20052;-72
2023/04/03 11:13:07;;;;;;;3.83;1.00;;;16.10;64.00;;;;;;5062862;28;20041;-71
2023/04/03 11:15:33;;;;;;;1.65;0.90;;;16.00;63.90;;;;;;5064502;28;20546;-70
2023/04/03 11:18:07;;;;;;;2.75;1.00;;;16.30;64.90;;;;;;5062597;28;20050;-69
2023/04/03 11:20:37;;;;;;;2.63;1.05;;;16.50;63.70;;;;;;5063917;28;20090;-71
2023/04/03 11:23:05;;;;;;;2.15;0.85;;;16.70;64.10;;;;;;5061335;28;20052;-71
2023/04/03 11:25:41;;;;;;;1.55;0.90;;;17.00;63.60;;;;;;5064534;28;20178;-70
2023/04/03 11:28:12;;;;;;;;;;;17.20;61.10;;;;;;5065040;28;20045;-70
2023/04/03 11:30:49;;;;;;;2.33;1.00;;;17.30;57.60;;;;;;5064474;28;20489;-70
2023/04/03 11:33:33;;;;;;;2.45;0.88;;;17.20;61.50;;;;;;5079791;28;20091;-70
2023/04/03 11:36:25;;;;;;;2.30;0.90;;;17.30;62.40;;;;;;5066361;28;20095;-70
2023/04/03 11:38:55;;;;;;;2.90;1.05;;;17.40;61.00;;;;;;5061950;28;20044;-69
2023/04/03 11:41:30;;;;;;;1.70;0.73;;;17.20;60.60;;;;;;5063101;28;20117;-69
2023/04/03 11:43:57;;;;;;;1.35;0.90;;;17.10;60.20;;;;;;5063832;28;20059;-69
2023/04/03 11:46:43;;;;;;;1.38;0.80;;;17.10;60.80;;;;;;5062861;28;20040;-69
2023/04/03 11:49:48;;;;;;;2.83;1.15;;;17.30;59.80;;;;;;5053810;28;20387;-69
2023/04/03 11:52:42;;;;;;;2.40;1.10;;;17.60;56.90;;;;;;5064677;28;20560;-69
2023/04/03 11:55:23;;;;;;;1.70;1.00;;;17.90;56.20;;;;;;5061703;28;20094;-68
2023/04/03 11:57:57;;;;;;;2.13;1.00;;;18.00;58.20;;;;;;5065919;28;20072;-70
2023/04/03 12:00:46;;;;;;;2.55;1.00;;;18.00;57.80;;;;;;5062057;28;20078;-70
2023/04/03 12:03:27;;;;;;;3.67;1.00;;;17.70;56.40;;;;;;5063525;28;20113;-70
2023/04/03 12:06:05;;;;;;;2.65;1.00;;;17.70;56.40;;;;;;5064457;28;20512;-70
2023/04/03 12:08:44;;;;;;;1.85;1.00;;;17.80;56.00;;;;;;5063134;28;20401;-69
2023/04/03 12:11:13;;;;;;;2.63;1.08;;;18.10;56.60;;;;;;5061907;28;20641;-69
2023/04/03 12:13:42;;;;;;;3.13;1.25;;;18.10;57.20;;;;;;5063401;28;20078;-69
2023/04/03 12:16:21;;;;;;;2.05;0.95;;;18.20;57.30;;;;;;5063108;28;20037;-70
2023/04/03 12:18:58;;;;;;;3.08;1.20;;;18.40;56.10;;;;;;5063926;28;20040;-69
2023/04/03 12:21:51;;;;;;;2.75;1.17;;;18.60;56.00;;;;;;5062114;28;20044;-70
2023/04/03 12:24:39;;;;;;;2.33;0.95;;;19.00;55.30;;;;;;5078528;28;20052;-69
2023/04/03 12:27:25;;;;;;;2.92;0.93;;;19.10;55.30;;;;;;5045749;28;20805;-68
2023/04/03 12:30:10;;;;;;;3.10;1.15;;;19.30;57.20;;;;;;5080558;28;20052;-69
2023/04/03 12:32:57;;;;;;;2.80;1.00;;;19.50;55.00;;;;;;5062860;28;20061;-70
2023/04/03 12:35:35;;;;;;;1.65;0.95;;;19.60;56.00;;;;;;5062395;28;20048;-69
2023/04/03 12:38:27;;;;;;;4.32;1.33;;;19.80;54.70;;;;;;5080170;28;20135;-69
2023/04/03 12:41:10;;;;;;;1.55;0.80;;;19.80;53.50;;;;;;5080115;28;20062;-70
2023/04/03 12:44:08;;;;;;;1.15;0.60;;;19.80;54.90;;;;;;5065013;28;20063;-70
2023/04/03 12:46:51;;;;;;;1.83;1.00;;;20.00;53.50;;;;;;5061082;28;20063;-70
2023/04/03 12:49:20;;;;;;;2.63;1.23;;;20.20;54.40;;;;;;5062777;28;20043;-69
2023/04/03 12:51:47;;;;;;;2.45;1.00;;;20.10;54.30;;;;;;5064403;28;20044;-69
2023/04/03 12:54:33;;;;;;;2.30;0.80;;;20.10;54.30;;;;;;5064064;28;20052;-70
2023/04/03 12:57:18;;;;;;;;;;;20.30;52.40;;;;;;5065934;28;20055;-69
2023/04/03 12:59:46;;;;;;;2.78;1.10;;;20.40;51.30;;;;;;5044817;28;19925;-70
2023/04/03 13:02:24;;;;;;;2.45;1.00;;;20.30;54.70;;;;;;5063908;28;20055;-71
2023/04/03 13:05:05;;;;;;;3.08;1.00;;;20.20;52.10;;;;;;5061381;28;20242;-72
2023/04/03 13:07:38;;;;;;;1.52;0.80;;;20.10;53.60;;;;;;5062044;28;20123;-70
2023/04/03 13:10:10;;;;;;;2.22;0.90;;;19.90;53.80;;;;;;5057182;28;20047;-70
2023/04/03 13:12:49;;;;;;;2.80;0.90;;;19.80;53.40;;;;;;5065370;28;20059;-71
2023/04/03 13:15:24;;;;;;;1.60;0.80;;;19.70;52.50;;;;;;5066071;28;20044;-72